createdAt,value
2023-04-20T05:01:10.465Z,32.92
2023-04-20T05:02:10.520Z,31.94
2023-04-20T05:03:10.517Z,31.67
2023-04-20T05:04:10.651Z,31.49
2023-04-20T05:05:10.525Z,31.66
2023-04-20T05:06:10.575Z,31.28
2023-04-20T05:07:10.606Z,31.28
2023-04-20T05:08:10.652Z,31.31
2023-04-20T05:09:10.651Z,31.11
2023-04-20T05:10:10.696Z,31.27
2023-04-20T05:11:10.728Z,31.28
2023-04-20T05:12:10.679Z,31.14
2023-04-20T05:13:10.735Z,31.03
2023-04-20T05:14:10.754Z,31.21
2023-04-20T05:15:10.752Z,31.07
2023-04-20T05:16:10.858Z,31.00
2023-04-20T05:17:10.803Z,30.92
2023-04-20T05:18:10.832Z,30.78
2023-04-20T05:19:10.897Z,30.81
2023-04-20T05:20:10.860Z,30.94
2023-04-20T05:21:10.891Z,30.75
2023-04-20T05:22:10.972Z,30.67
2023-04-20T05:23:10.981Z,30.71
2023-04-20T05:24:11.015Z,30.51
2023-04-20T05:25:13.281Z,30.58
2023-04-20T05:26:11.006Z,30.53
2023-04-20T05:27:11.019Z,30.64
2023-04-20T05:28:11.001Z,30.56
2023-04-20T05:29:11.027Z,30.38
2023-04-20T05:30:20.201Z,30.39
2023-04-20T05:31:11.966Z,30.54
2023-04-20T05:32:11.118Z,30.29
2023-04-20T05:33:10.963Z,30.43
2023-04-20T05:34:10.946Z,30.42
2023-04-20T05:35:10.997Z,30.46
2023-04-20T05:36:10.961Z,30.47
2023-04-20T05:37:10.929Z,30.42
2023-04-20T05:38:10.927Z,30.44
2023-04-20T05:39:10.927Z,30.32
2023-04-20T05:40:10.917Z,30.21
2023-04-20T05:41:10.915Z,30.18
2023-04-20T05:42:10.895Z,30.13
2023-04-20T05:43:10.894Z,30.05
2023-04-20T05:44:10.931Z,30.03
2023-04-20T05:45:10.896Z,30.10
2023-04-20T05:46:10.997Z,30.05
2023-04-20T05:47:10.891Z,29.91
2023-04-20T05:48:10.950Z,29.96
2023-04-20T05:49:10.937Z,29.64
2023-04-20T05:50:10.955Z,29.89
2023-04-20T05:51:10.977Z,29.88
2023-04-20T05:52:10.975Z,29.96
2023-04-20T05:53:10.982Z,29.93
2023-04-20T05:54:11.016Z,29.77
2023-04-20T05:55:10.989Z,29.86
2023-04-20T05:56:11.009Z,30.14
2023-04-20T05:57:11.015Z,30.12
2023-04-20T05:58:11.046Z,30.13
2023-04-20T05:59:11.068Z,30.28
2023-04-20T06:00:11.054Z,30.20
2023-04-20T06:01:11.086Z,30.20
2023-04-20T06:02:11.197Z,30.24
2023-04-20T06:03:11.308Z,30.26
2023-04-20T06:04:11.425Z,30.46
2023-04-20T06:05:11.448Z,30.52
2023-04-20T06:06:16.150Z,30.66
2023-04-20T06:07:11.286Z,30.39
2023-04-20T06:08:11.556Z,30.35
2023-04-20T06:09:11.386Z,30.10
2023-04-20T06:11:08.574Z,30.00
2023-04-20T06:12:08.552Z,29.62
2023-04-20T06:13:08.569Z,29.59
2023-04-20T06:14:08.539Z,29.86
2023-04-20T06:15:09.281Z,29.72
2023-04-20T06:16:08.625Z,29.89
2023-04-20T06:17:08.532Z,29.75
2023-04-20T06:18:08.546Z,29.86
2023-04-20T06:19:08.511Z,29.80
2023-04-20T06:20:08.493Z,29.71
2023-04-20T06:21:08.494Z,29.85
2023-04-20T06:22:08.500Z,29.83
2023-04-20T06:23:08.477Z,29.62
2023-04-20T06:24:08.477Z,29.50
2023-04-20T06:25:08.487Z,29.27
2023-04-20T06:26:08.447Z,29.64
2023-04-20T06:27:08.440Z,29.63
2023-04-20T06:28:08.565Z,29.62
2023-04-20T06:29:08.432Z,29.54
2023-04-20T06:30:08.461Z,29.69
2023-04-20T06:31:08.467Z,29.75
2023-04-20T06:32:08.405Z,29.83
2023-04-20T06:33:10.281Z,29.93
2023-04-20T06:34:08.418Z,30.17
2023-04-20T06:35:08.404Z,30.22
2023-04-20T06:36:08.386Z,30.10
2023-04-20T06:37:09.257Z,30.09
2023-04-20T06:38:08.382Z,30.12
2023-04-20T06:39:08.425Z,30.15
2023-04-20T06:40:08.833Z,30.16
2023-04-20T06:41:08.343Z,30.12
2023-04-20T06:42:08.387Z,30.16
2023-04-20T06:43:08.418Z,30.17
2023-04-20T06:44:08.335Z,30.19
2023-04-20T06:45:08.353Z,30.24
2023-04-20T06:46:08.332Z,30.15
2023-04-20T06:47:08.336Z,30.17
2023-04-20T06:48:17.191Z,30.18
2023-04-20T06:49:08.266Z,30.30
2023-04-20T06:50:08.325Z,30.23
2023-04-20T06:51:08.378Z,30.27
2023-04-20T06:52:08.240Z,30.25
2023-04-20T06:53:08.304Z,30.14
2023-04-20T06:54:08.238Z,30.21
2023-04-20T06:55:08.399Z,30.32
2023-04-20T06:56:08.245Z,31.04
2023-04-20T06:57:08.236Z,30.77
2023-04-20T06:58:08.237Z,30.46
2023-04-20T06:59:08.216Z,29.93
2023-04-20T07:00:08.303Z,29.69
2023-04-20T07:01:08.414Z,29.78
2023-04-20T07:02:08.596Z,29.86
2023-04-20T07:03:08.624Z,29.95
2023-04-20T07:04:08.581Z,29.92
2023-04-20T07:05:08.542Z,29.93
2023-04-20T07:06:08.537Z,30.06
2023-04-20T07:07:08.608Z,29.98
2023-04-20T07:08:08.604Z,30.05
2023-04-20T07:09:08.707Z,29.94
2023-04-20T07:10:10.911Z,29.93
2023-04-20T07:11:08.799Z,29.96
2023-04-20T07:12:08.837Z,30.01
2023-04-20T07:13:08.892Z,30.10
2023-04-20T07:14:09.014Z,30.10
2023-04-20T07:15:09.025Z,30.12
2023-04-20T07:16:09.075Z,30.09
2023-04-20T07:17:09.144Z,30.02
2023-04-20T07:18:09.263Z,30.14
2023-04-20T07:19:09.207Z,30.24
2023-04-20T07:20:09.271Z,30.30
2023-04-20T07:21:09.308Z,30.31
2023-04-20T07:22:09.363Z,30.41
2023-04-20T07:23:09.513Z,30.39
2023-04-20T07:24:09.903Z,30.44
2023-04-20T07:25:09.596Z,30.54
2023-04-20T07:26:09.461Z,30.60
2023-04-20T07:27:09.502Z,30.65
2023-04-20T07:28:09.580Z,30.61
2023-04-20T07:29:09.560Z,30.70
2023-04-20T07:30:09.646Z,30.74
2023-04-20T07:31:09.743Z,30.78
2023-04-20T07:32:09.757Z,30.83
2023-04-20T07:33:09.884Z,30.83
2023-04-20T07:34:09.784Z,30.81
2023-04-20T07:35:09.771Z,30.92
2023-04-20T07:36:09.830Z,30.99
2023-04-20T07:37:09.799Z,31.01
2023-04-20T07:38:09.868Z,31.05
2023-04-20T07:39:11.797Z,31.08
2023-04-20T07:40:09.984Z,31.12
2023-04-20T07:41:09.963Z,31.09
2023-04-20T07:42:09.956Z,31.13
2023-04-20T07:43:10.019Z,31.10
2023-04-20T07:44:10.000Z,31.17
2023-04-20T07:45:10.085Z,31.20
2023-04-20T07:46:10.123Z,31.19
2023-04-20T07:47:10.073Z,31.27
2023-04-20T07:48:10.218Z,31.26
2023-04-20T07:49:10.132Z,31.26
2023-04-20T07:50:10.216Z,31.26
2023-04-20T07:51:10.180Z,31.20
2023-04-20T07:52:16.419Z,31.18
2023-04-20T07:53:11.137Z,31.19
2023-04-20T07:54:10.158Z,31.23
2023-04-20T07:55:10.175Z,31.35
2023-04-20T07:56:10.129Z,31.31
2023-04-20T07:57:10.146Z,31.33
2023-04-20T07:58:10.143Z,31.30
2023-04-20T07:59:10.167Z,31.27
2023-04-20T08:00:10.125Z,31.25
2023-04-20T08:01:10.112Z,31.19
2023-04-20T08:02:10.172Z,31.19
2023-04-20T08:03:10.453Z,31.20
2023-04-20T08:04:10.254Z,31.15
2023-04-20T08:05:10.362Z,31.13
2023-04-20T08:06:10.086Z,31.12
2023-04-20T08:07:10.066Z,31.10
2023-04-20T08:08:10.088Z,31.08
2023-04-20T08:09:11.921Z,31.06
2023-04-20T08:10:10.551Z,31.07
2023-04-20T08:11:10.061Z,31.10
2023-04-20T08:12:10.027Z,31.08
2023-04-20T08:13:10.040Z,30.99
2023-04-20T08:14:10.057Z,30.56
2023-04-20T08:15:10.132Z,30.23
2023-04-20T08:16:10.038Z,30.17
2023-04-20T08:17:10.025Z,29.96
2023-04-20T08:18:10.015Z,29.70
2023-04-20T08:19:10.033Z,29.75
2023-04-20T08:20:09.959Z,29.72
2023-04-20T08:21:10.034Z,30.00
2023-04-20T08:22:09.935Z,29.92
2023-04-20T08:23:09.983Z,29.97
2023-04-20T08:24:09.953Z,30.16
2023-04-20T08:25:09.939Z,30.25
2023-04-20T08:26:09.966Z,29.95
2023-04-20T08:27:09.913Z,29.79
2023-04-20T08:28:15.375Z,29.76
2023-04-20T08:29:10.951Z,29.84
2023-04-20T08:30:10.078Z,29.91
2023-04-20T08:31:09.944Z,30.22
2023-04-20T08:32:09.919Z,30.64
2023-04-20T08:33:09.962Z,30.74
2023-04-20T08:34:09.886Z,30.75
2023-04-20T08:35:09.915Z,30.72
2023-04-20T08:36:09.858Z,30.81
2023-04-20T08:37:09.907Z,30.74
2023-04-20T08:38:09.975Z,30.71
2023-04-20T08:39:09.845Z,30.75
2023-04-20T08:40:09.893Z,30.67
2023-04-20T08:41:09.897Z,30.74
2023-04-20T08:43:09.973Z,30.74
2023-04-20T08:44:09.978Z,30.84
2023-04-20T08:45:10.027Z,30.83
2023-04-20T08:46:10.070Z,30.97
2023-04-20T08:47:10.139Z,31.09
2023-04-20T08:48:10.113Z,31.15
2023-04-20T08:49:10.138Z,31.11
2023-04-20T08:50:10.241Z,31.12
2023-04-20T08:51:10.193Z,31.10
2023-04-20T08:52:10.240Z,31.07
2023-04-20T08:53:10.406Z,31.07
2023-04-20T08:54:10.290Z,31.08
2023-04-20T08:55:10.392Z,31.18
2023-04-20T08:56:10.402Z,31.19
2023-04-20T08:57:10.369Z,31.35
2023-04-20T08:58:10.372Z,31.60
2023-04-20T08:59:10.515Z,31.73
2023-04-20T09:00:12.847Z,31.81
2023-04-20T09:01:10.495Z,31.93
2023-04-20T09:02:10.534Z,31.84
2023-04-20T09:03:10.525Z,31.90
2023-04-20T09:04:10.522Z,32.01
2023-04-20T09:05:10.451Z,32.02
2023-04-20T09:06:10.386Z,32.10
2023-04-20T09:07:10.353Z,32.07
2023-04-20T09:08:10.392Z,32.22
2023-04-20T09:09:11.558Z,32.25
2023-04-20T09:10:10.350Z,32.44
2023-04-20T09:11:10.353Z,32.66
2023-04-20T09:12:10.416Z,32.58
2023-04-20T09:13:10.328Z,32.82
2023-04-20T09:14:10.282Z,32.75
2023-04-20T09:15:10.290Z,32.88
2023-04-20T09:16:10.357Z,32.85
2023-04-20T09:17:10.296Z,33.01
2023-04-20T09:18:10.309Z,33.12
2023-04-20T09:19:11.275Z,33.16
2023-04-20T09:20:10.423Z,33.22
2023-04-20T09:21:10.473Z,33.21
2023-04-20T09:22:10.493Z,33.51
2023-04-20T09:23:10.473Z,33.52
2023-04-20T09:24:10.510Z,33.65
2023-04-20T09:25:10.523Z,33.74
2023-04-20T09:26:10.554Z,33.62
2023-04-20T09:27:10.593Z,33.74
2023-04-20T09:28:10.934Z,33.92
2023-04-20T09:29:10.820Z,33.93
2023-04-20T09:30:10.724Z,34.00
2023-04-20T09:31:10.783Z,34.08
2023-04-20T09:32:10.872Z,34.19
2023-04-20T09:33:11.159Z,34.32
2023-04-20T09:34:10.913Z,34.24
2023-04-20T09:35:11.001Z,34.24
2023-04-20T09:36:11.037Z,34.34
2023-04-20T09:37:11.100Z,34.35
2023-04-20T09:38:11.122Z,34.26
2023-04-20T09:39:11.176Z,34.17
2023-04-20T09:40:11.206Z,34.41
2023-04-20T09:41:11.236Z,34.27
2023-04-20T09:42:11.374Z,34.21
2023-04-20T09:43:12.537Z,34.12
2023-04-20T09:44:11.414Z,31.73
2023-04-20T09:45:11.422Z,30.59
2023-04-20T09:46:11.573Z,30.05
2023-04-20T09:47:11.416Z,29.92
2023-04-20T09:48:11.526Z,29.54
2023-04-20T09:49:11.447Z,29.19
2023-04-20T09:50:24.702Z,28.95
2023-04-20T09:51:12.559Z,28.96
2023-04-20T09:52:11.494Z,28.83
2023-04-20T09:53:11.551Z,28.80
2023-04-20T09:54:11.443Z,28.52
2023-04-20T09:55:11.498Z,28.51
2023-04-20T09:56:11.465Z,28.59
2023-04-20T09:57:11.420Z,28.32
2023-04-20T09:58:11.429Z,28.45
2023-04-20T09:59:11.471Z,28.33
2023-04-20T10:00:11.881Z,28.28
2023-04-20T10:01:11.568Z,28.25
2023-04-20T10:02:11.642Z,28.53
2023-04-20T10:03:11.649Z,28.26
2023-04-20T10:04:11.821Z,28.30
2023-04-20T10:05:11.638Z,28.37
2023-04-20T10:06:11.579Z,28.41
2023-04-20T10:07:11.644Z,28.52
2023-04-20T10:08:11.639Z,28.47
2023-04-20T10:09:11.665Z,28.54
2023-04-20T10:10:11.731Z,28.47
2023-04-20T10:11:12.383Z,28.33
2023-04-20T10:12:11.733Z,28.33
2023-04-20T10:13:11.734Z,28.26
2023-04-20T10:14:11.822Z,28.30
2023-04-20T10:15:11.828Z,28.20
2023-04-20T10:16:11.857Z,28.09
2023-04-20T10:17:11.999Z,28.19
2023-04-20T10:18:12.058Z,28.38
2023-04-20T10:19:12.004Z,28.40
2023-04-20T10:20:11.985Z,28.23
2023-04-20T10:21:12.094Z,28.29
2023-04-20T10:22:12.113Z,28.29
2023-04-20T10:23:12.139Z,28.39
2023-04-20T10:24:12.229Z,28.22
2023-04-20T10:25:12.245Z,28.47
2023-04-20T10:26:12.330Z,28.56
2023-04-20T10:27:12.347Z,28.67
2023-04-20T10:28:12.458Z,28.68
2023-04-20T10:29:12.416Z,28.94
2023-04-20T10:30:12.501Z,28.90
2023-04-20T10:31:12.545Z,29.10
2023-04-20T10:32:12.523Z,29.50
2023-04-20T10:33:12.653Z,29.53
2023-04-20T10:34:12.535Z,29.84
2023-04-20T10:35:12.522Z,30.04
2023-04-20T10:36:12.559Z,30.04
2023-04-20T10:37:12.571Z,30.35
2023-04-20T10:38:12.583Z,30.33
2023-04-20T10:39:12.638Z,30.33
2023-04-20T10:40:12.681Z,30.42
2023-04-20T10:41:12.784Z,30.84
2023-04-20T10:42:17.974Z,31.05
2023-04-20T10:43:12.899Z,31.18
2023-04-20T10:44:12.854Z,30.85
2023-04-20T10:45:12.915Z,30.71
2023-04-20T10:46:13.042Z,30.80
2023-04-20T10:47:12.973Z,30.75
2023-04-20T10:48:12.993Z,30.81
2023-04-20T10:49:13.007Z,30.87
2023-04-20T10:50:13.428Z,30.89
2023-04-20T10:51:13.053Z,31.07
2023-04-20T10:52:13.098Z,31.07
2023-04-20T10:53:13.118Z,31.17
2023-04-20T10:54:13.119Z,30.84
2023-04-20T10:55:13.142Z,30.44
2023-04-20T10:56:13.193Z,30.11
2023-04-20T10:57:13.225Z,29.97
2023-04-20T10:58:13.310Z,30.02
2023-04-20T10:59:13.337Z,30.00
2023-04-20T11:00:14.358Z,30.05
2023-04-20T11:01:13.360Z,30.11
2023-04-20T11:02:13.461Z,29.99
2023-04-20T11:03:13.588Z,30.15
2023-04-20T11:04:14.481Z,30.22
2023-04-20T11:05:13.489Z,29.86
2023-04-20T11:06:13.400Z,29.78
2023-04-20T11:07:13.556Z,29.72
2023-04-20T11:08:13.454Z,29.92
2023-04-20T11:09:13.467Z,30.04
2023-04-20T11:10:13.528Z,30.11
2023-04-20T11:11:13.490Z,30.21
2023-04-20T11:12:13.470Z,30.27
2023-04-20T11:13:13.505Z,30.42
2023-04-20T11:14:13.512Z,30.49
2023-04-20T11:15:13.523Z,30.78
2023-04-20T11:16:13.645Z,31.17
2023-04-20T11:17:13.663Z,31.15
2023-04-20T11:18:13.683Z,31.23
2023-04-20T11:19:13.718Z,31.22
2023-04-20T11:20:13.753Z,31.24
2023-04-20T11:21:13.810Z,31.19
2023-04-20T11:22:13.876Z,31.16
2023-04-20T11:23:13.897Z,31.11
2023-04-20T11:24:13.918Z,31.07
2023-04-20T11:25:13.976Z,31.06
2023-04-20T11:26:13.998Z,31.01
2023-04-20T11:27:14.043Z,30.98
2023-04-20T11:28:14.030Z,30.97
2023-04-20T11:29:14.074Z,30.93
2023-04-20T11:30:14.129Z,30.90
2023-04-20T11:31:14.138Z,30.87
2023-04-20T11:32:14.255Z,30.82
2023-04-20T11:33:14.428Z,30.77
2023-04-20T11:34:14.164Z,30.75
2023-04-20T11:35:14.255Z,30.72
2023-04-20T11:36:14.210Z,30.70
2023-04-20T11:37:14.252Z,30.70
2023-04-20T11:38:14.280Z,30.69
2023-04-20T11:39:14.272Z,30.37
2023-04-20T11:40:14.693Z,29.35
2023-04-20T11:41:14.353Z,28.57
2023-04-20T11:42:14.390Z,28.56
2023-04-20T11:43:14.440Z,28.36
2023-04-20T11:44:14.424Z,28.14
2023-04-20T11:45:14.431Z,28.24
2023-04-20T11:46:14.599Z,28.24
2023-04-20T11:47:14.460Z,28.35
2023-04-20T11:48:14.504Z,28.38
2023-04-20T11:49:14.512Z,28.50
2023-04-20T11:50:14.617Z,28.53
2023-04-20T11:51:14.660Z,28.84
2023-04-20T11:52:14.683Z,28.68
2023-04-20T11:53:14.763Z,28.93
2023-04-20T11:54:14.784Z,28.94
2023-04-20T11:55:14.802Z,29.14
2023-04-20T11:56:14.836Z,29.00
2023-04-20T11:57:14.906Z,29.05
2023-04-20T11:58:14.891Z,29.11
2023-04-20T11:59:14.925Z,29.18
2023-04-20T12:00:14.917Z,29.15
2023-04-20T12:01:14.981Z,29.31
2023-04-20T12:02:15.026Z,29.59
2023-04-20T12:03:15.102Z,29.67
2023-04-20T12:04:15.756Z,29.63
2023-04-20T12:05:15.049Z,29.70
2023-04-20T12:06:14.970Z,29.75
2023-04-20T12:07:14.991Z,29.78
2023-04-20T12:08:14.978Z,29.91
2023-04-20T12:09:15.120Z,29.82
2023-04-20T12:10:15.056Z,29.84
2023-04-20T12:11:15.053Z,29.83
2023-04-20T12:12:15.080Z,29.87
2023-04-20T12:13:15.125Z,29.89
2023-04-20T12:14:15.029Z,29.85
2023-04-20T12:15:15.117Z,29.91
2023-04-20T12:16:15.119Z,29.96
2023-04-20T12:17:15.950Z,29.95
2023-04-20T12:18:15.134Z,29.96
2023-04-20T12:19:15.364Z,29.95
2023-04-20T12:20:15.277Z,29.99
2023-04-20T12:21:15.122Z,29.93
2023-04-20T12:22:15.172Z,29.93
2023-04-20T12:23:15.190Z,29.91
2023-04-20T12:24:15.179Z,29.92
2023-04-20T12:25:15.194Z,29.98
2023-04-20T12:26:15.233Z,29.93
2023-04-20T12:27:15.245Z,29.96
2023-04-20T12:28:15.222Z,29.93
2023-04-20T12:29:15.487Z,29.91
2023-04-20T12:30:15.246Z,29.89
2023-04-20T12:31:15.315Z,29.96
2023-04-20T12:32:15.404Z,30.02
2023-04-20T12:33:15.296Z,30.06
2023-04-20T12:34:15.987Z,30.07
2023-04-20T12:35:15.398Z,30.14
2023-04-20T12:36:15.442Z,30.19
2023-04-20T12:37:15.331Z,30.28
2023-04-20T12:38:15.356Z,30.47
2023-04-20T12:39:15.454Z,31.27
2023-04-20T12:40:15.512Z,31.29
2023-04-20T12:41:15.533Z,31.20
2023-04-20T12:42:15.558Z,30.94
2023-04-20T12:43:15.569Z,30.87
2023-04-20T12:44:15.639Z,30.85
2023-04-20T12:45:15.793Z,30.29
2023-04-20T12:46:15.737Z,30.54
2023-04-20T12:47:15.868Z,30.36
2023-04-20T12:48:15.955Z,30.30
2023-04-20T12:49:16.157Z,30.16
2023-04-20T12:50:15.849Z,30.01
2023-04-20T12:51:15.820Z,30.20
2023-04-20T12:52:15.831Z,30.39
2023-04-20T12:53:15.870Z,30.12
2023-04-20T12:54:16.039Z,30.03
2023-04-20T12:55:15.929Z,30.09
2023-04-20T12:56:15.976Z,30.29
2023-04-20T12:57:15.947Z,30.21
2023-04-20T12:58:16.021Z,30.21
2023-04-20T12:59:16.014Z,30.15
2023-04-20T13:00:16.073Z,30.12
2023-04-20T13:01:16.243Z,30.10
2023-04-20T13:02:16.132Z,30.23
2023-04-20T13:03:16.243Z,30.20
2023-04-20T13:04:16.401Z,30.20
2023-04-20T13:05:16.074Z,30.19
2023-04-20T13:06:16.130Z,30.24
2023-04-20T13:07:16.092Z,30.31
2023-04-20T13:08:16.093Z,30.29
2023-04-20T13:09:16.114Z,30.28
2023-04-20T13:10:16.105Z,30.36
2023-04-20T13:11:16.164Z,30.52
2023-04-20T13:12:16.115Z,30.52
2023-04-20T13:13:16.101Z,30.44
2023-04-20T13:14:16.165Z,30.35
2023-04-20T13:15:18.876Z,30.26
2023-04-20T13:16:17.139Z,30.09
2023-04-20T13:17:16.093Z,30.11
2023-04-20T13:18:16.039Z,30.05
2023-04-20T13:19:16.053Z,30.04
2023-04-20T13:20:16.048Z,30.04
2023-04-20T13:21:16.067Z,29.96
2023-04-20T13:22:18.658Z,30.00
2023-04-20T13:23:16.033Z,29.98
2023-04-20T13:24:16.270Z,30.03
2023-04-20T13:25:16.044Z,30.04
2023-04-20T13:26:16.029Z,29.99
2023-04-20T13:27:16.030Z,29.91
2023-04-20T13:28:15.998Z,29.91
2023-04-20T13:29:16.240Z,29.94
2023-04-20T13:30:15.955Z,29.94
2023-04-20T13:31:15.992Z,29.86
2023-04-20T13:32:16.062Z,29.94
2023-04-20T13:33:16.010Z,29.98
2023-04-20T13:34:16.189Z,30.01
2023-04-20T13:35:15.947Z,29.93
2023-04-20T13:36:16.001Z,29.83
2023-04-20T13:37:15.935Z,29.91
2023-04-20T13:38:15.942Z,29.88
2023-04-20T13:39:16.059Z,29.79
2023-04-20T13:40:15.988Z,29.68
2023-04-20T13:41:15.914Z,29.81
2023-04-20T13:42:15.929Z,29.74
2023-04-20T13:43:15.938Z,29.79
2023-04-20T13:44:16.140Z,29.79
2023-04-20T13:45:15.884Z,29.77
2023-04-20T13:46:15.915Z,29.84
2023-04-20T13:47:15.904Z,29.95
2023-04-20T13:48:15.859Z,29.98
2023-04-20T13:49:15.861Z,29.99
2023-04-20T13:50:15.859Z,30.01
2023-04-20T13:51:15.923Z,30.09
2023-04-20T13:52:15.839Z,30.20
2023-04-20T13:53:15.863Z,30.19
2023-04-20T13:54:15.920Z,30.11
2023-04-20T13:55:15.904Z,30.11
2023-04-20T13:56:16.025Z,30.12
2023-04-20T13:57:15.847Z,30.07
2023-04-20T13:58:15.798Z,30.10
2023-04-20T13:59:15.838Z,30.08
2023-04-20T14:00:15.795Z,30.02
2023-04-20T14:01:15.866Z,30.05
2023-04-20T14:02:15.893Z,30.01
2023-04-20T14:03:16.025Z,30.04
2023-04-20T14:04:15.856Z,29.95
2023-04-20T14:05:15.820Z,29.96
2023-04-20T14:06:15.747Z,30.00
2023-04-20T14:07:15.741Z,30.72
2023-04-20T14:08:15.743Z,31.18
2023-04-20T14:09:15.724Z,30.98
2023-04-20T14:10:15.747Z,30.45
2023-04-20T14:11:15.757Z,30.36
2023-04-20T14:12:15.741Z,30.34
2023-04-20T14:13:15.724Z,30.35
2023-04-20T14:14:16.046Z,30.51
2023-04-20T14:15:15.694Z,30.59
2023-04-20T14:16:15.792Z,30.71
2023-04-20T14:17:15.677Z,30.83
2023-04-20T14:18:15.671Z,30.89
2023-04-20T14:19:15.736Z,31.02
2023-04-20T14:20:15.798Z,31.04
2023-04-20T14:21:15.850Z,31.11
2023-04-20T14:22:15.901Z,31.12
2023-04-20T14:23:15.953Z,31.16
2023-04-20T14:24:16.235Z,31.18
2023-04-20T14:25:16.068Z,31.20
2023-04-20T14:26:16.119Z,31.23
2023-04-20T14:27:16.132Z,31.32
2023-04-20T14:28:16.161Z,31.46
2023-04-20T14:29:16.229Z,31.58
2023-04-20T14:30:16.267Z,31.78
2023-04-20T14:31:16.383Z,31.77
2023-04-20T14:32:16.330Z,31.86
2023-04-20T14:33:16.407Z,31.95
2023-04-20T14:34:16.578Z,31.97
2023-04-20T14:35:16.447Z,32.01
2023-04-20T14:36:16.429Z,32.04
2023-04-20T14:37:16.484Z,32.03
2023-04-20T14:38:16.558Z,32.02
2023-04-20T14:39:16.542Z,31.97
2023-04-20T14:40:16.564Z,31.96
2023-04-20T14:41:16.607Z,31.94
2023-04-20T14:42:16.618Z,31.94
2023-04-20T14:43:16.686Z,31.95
2023-04-20T14:44:16.887Z,31.93
2023-04-20T14:45:16.723Z,31.93
2023-04-20T14:46:16.816Z,31.90
2023-04-20T14:47:16.755Z,31.89
2023-04-20T14:48:16.844Z,31.88
2023-04-20T14:49:16.844Z,31.88
2023-04-20T14:50:16.840Z,31.86
2023-04-20T14:51:16.896Z,31.83
2023-04-20T14:52:16.871Z,31.85
2023-04-20T14:53:16.941Z,31.84
2023-04-20T14:54:17.213Z,31.83
2023-04-20T14:55:17.008Z,31.81
2023-04-20T14:56:16.992Z,31.82
2023-04-20T14:57:17.006Z,31.80
2023-04-20T14:58:17.067Z,31.76
2023-04-20T14:59:17.044Z,31.79
2023-04-20T15:00:17.112Z,31.78
2023-04-20T15:01:17.165Z,31.75
2023-04-20T15:02:17.214Z,31.80
2023-04-20T15:03:17.293Z,31.79
2023-04-20T15:04:17.447Z,31.77
2023-04-20T15:05:17.364Z,31.77
2023-04-20T15:06:17.176Z,31.80
2023-04-20T15:07:17.224Z,31.82
2023-04-20T15:08:17.217Z,31.79
2023-04-20T15:09:17.248Z,31.80
2023-04-20T15:10:17.265Z,31.80
2023-04-20T15:11:17.297Z,31.79
2023-04-20T15:12:17.344Z,31.80
2023-04-20T15:13:17.481Z,31.78
2023-04-20T15:14:17.520Z,31.78
2023-04-20T15:15:17.388Z,31.79
2023-04-20T15:16:17.418Z,31.80
2023-04-20T15:17:17.446Z,31.82
2023-04-20T15:18:17.469Z,31.81
2023-04-20T15:19:17.493Z,31.79
2023-04-20T15:20:17.493Z,31.79
2023-04-20T15:21:17.510Z,31.79
2023-04-20T15:22:17.564Z,31.81
2023-04-20T15:23:17.594Z,31.80
2023-04-20T15:24:17.820Z,31.79
2023-04-20T15:25:17.688Z,31.80
2023-04-20T15:26:17.654Z,31.81
2023-04-20T15:27:17.676Z,31.81
2023-04-20T15:28:17.733Z,31.82
2023-04-20T15:29:17.723Z,31.81
2023-04-20T15:30:17.733Z,31.84
2023-04-20T15:31:17.782Z,31.83
2023-04-20T15:32:17.931Z,31.83
2023-04-20T15:33:17.899Z,31.82
2023-04-20T15:34:18.457Z,31.81
2023-04-20T15:35:17.883Z,31.80
2023-04-20T15:36:17.869Z,31.81
2023-04-20T15:37:17.938Z,31.85
2023-04-20T15:38:17.931Z,31.84
2023-04-20T15:39:17.965Z,31.84
2023-04-20T15:40:17.988Z,31.82
2023-04-20T15:41:17.977Z,31.82
2023-04-20T15:42:18.058Z,31.85
2023-04-20T15:43:18.087Z,31.85
2023-04-20T15:44:18.446Z,31.86
2023-04-20T15:45:18.191Z,31.84
2023-04-20T15:46:18.225Z,31.84
2023-04-20T15:47:18.182Z,31.85
2023-04-20T15:48:18.155Z,31.87
2023-04-20T15:49:18.193Z,31.90
2023-04-20T15:50:18.201Z,31.87
2023-04-20T15:51:18.211Z,31.85
2023-04-20T15:52:18.258Z,31.84
2023-04-20T15:53:18.251Z,31.88
2023-04-20T15:54:18.485Z,31.86
2023-04-20T15:55:18.340Z,31.87
2023-04-20T15:56:18.350Z,31.88
2023-04-20T15:57:18.379Z,31.89
2023-04-20T15:58:18.403Z,31.87
2023-04-20T15:59:18.411Z,31.89
2023-04-20T16:00:18.436Z,31.88
2023-04-20T16:01:18.503Z,31.92
2023-04-20T16:02:18.559Z,31.89
2023-04-20T16:03:18.713Z,31.92
2023-04-20T16:04:18.942Z,31.88
2023-04-20T16:05:18.540Z,31.91
2023-04-20T16:06:18.547Z,31.89
2023-04-20T16:07:18.569Z,31.90
2023-04-20T16:08:18.610Z,31.90
2023-04-20T16:09:18.632Z,31.90
2023-04-20T16:10:18.644Z,31.90
2023-04-20T16:11:18.669Z,31.88
2023-04-20T16:12:18.745Z,31.89
2023-04-20T16:13:18.706Z,31.90
2023-04-20T16:14:18.989Z,31.90
2023-04-20T16:15:18.775Z,31.92
2023-04-20T16:16:18.928Z,31.91
2023-04-20T16:17:18.745Z,31.91
2023-04-20T16:18:18.825Z,31.93
2023-04-20T16:19:18.839Z,31.93
2023-04-20T16:20:18.838Z,31.91
2023-04-20T16:21:18.843Z,31.91
2023-04-20T16:22:18.914Z,31.90
2023-04-20T16:23:18.919Z,31.92
2023-04-20T16:24:19.152Z,31.92
2023-04-20T16:25:18.964Z,31.91
2023-04-20T16:26:18.980Z,32.00
2023-04-20T16:27:19.041Z,32.00
2023-04-20T16:28:19.045Z,31.96
2023-04-20T16:29:19.036Z,31.96
2023-04-20T16:30:19.068Z,31.94
2023-04-20T16:31:19.118Z,31.98
2023-04-20T16:32:19.095Z,31.99
2023-04-20T16:33:19.103Z,31.99
2023-04-20T16:34:19.479Z,32.00
2023-04-20T16:35:19.169Z,31.98
2023-04-20T16:36:19.242Z,31.99
2023-04-20T16:37:19.191Z,32.00
2023-04-20T16:38:19.200Z,31.96
2023-04-20T16:39:19.231Z,32.01
2023-04-20T16:40:19.279Z,31.99
2023-04-20T16:41:19.250Z,31.98
2023-04-20T16:42:19.301Z,31.97
2023-04-20T16:43:19.306Z,31.99
2023-04-20T16:44:19.453Z,32.01
2023-04-20T16:45:19.362Z,31.99
2023-04-20T16:46:19.391Z,31.99
2023-04-20T16:47:19.382Z,32.03
2023-04-20T16:48:19.447Z,32.03
2023-04-20T16:49:19.465Z,32.00
2023-04-20T16:50:19.695Z,32.04
2023-04-20T16:51:19.499Z,32.00
2023-04-20T16:52:19.529Z,32.03
2023-04-20T16:53:19.551Z,32.02
2023-04-20T16:54:19.796Z,32.02
2023-04-20T16:55:19.574Z,32.03
2023-04-20T16:56:19.599Z,32.07
2023-04-20T16:57:19.672Z,32.06
2023-04-20T16:58:19.650Z,32.06
2023-04-20T16:59:19.690Z,32.08
2023-04-20T17:00:19.742Z,32.05
